Time;durP1;ratioP1;P1;durP2;ratioP2;P2;SDS_P1;SDS_P2;PMS_P1;PMS_P2;Temp;Humidity;BMP_temperature;BMP_pressure;BME280_temperature;BME280_humidity;BME280_pressure;Samples;Min_cycle;Max_cycle;Signal;HPM_P1;HPM_P2
2022/08/29 00:07:46;;;;;;;7.75;3.33;;;;;;;23.07;64.89;100320.59;18368800;32;20119;-55
2022/08/29 00:17:56;;;;;;;9.93;3.62;;;;;;;23.01;65.20;100324.47;18368341;32;20093;-55
2022/08/29 00:28:03;;;;;;;7.85;3.47;;;;;;;22.71;66.44;100317.25;18340795;32;20098;-55
2022/08/29 00:38:15;;;;;;;6.70;2.85;;;;;;;22.58;66.51;100330.34;18304213;32;20123;-55
2022/08/29 00:48:25;;;;;;;7.45;3.40;;;;;;;22.54;66.41;100321.66;18303588;32;20103;-55
2022/08/29 00:58:39;;;;;;;9.02;3.53;;;;;;;21.91;68.84;100328.47;18303184;32;20124;-55
2022/08/29 01:08:47;;;;;;;7.60;3.40;;;;;;;22.34;67.30;100329.81;18302283;32;20090;-55
2022/08/29 01:19:09;;;;;;;9.43;3.87;;;;;;;22.38;67.45;100332.25;18301762;32;20112;-55
2022/08/29 01:29:18;;;;;;;9.02;4.12;;;;;;;22.24;68.18;100350.72;18335562;32;20093;-55
2022/08/29 01:39:27;;;;;;;8.93;4.20;;;;;;;22.47;67.45;100351.31;18364249;32;20116;-55
2022/08/29 01:49:38;;;;;;;8.82;3.60;;;;;;;22.62;66.44;100357.66;18363609;32;20116;-55
2022/08/29 01:59:47;;;;;;;8.43;3.53;;;;;;;22.57;66.48;100358.78;18362941;32;20089;-55
2022/08/29 02:09:57;;;;;;;9.40;3.75;;;;;;;22.44;66.61;100358.53;18367482;32;20145;-55
2022/08/29 02:20:07;;;;;;;11.48;4.10;;;;;;;22.28;66.99;100353.13;18371484;32;20102;-55
2022/08/29 02:30:16;;;;;;;8.75;3.53;;;;;;;22.21;67.56;100354.41;18371062;32;20120;-55
2022/08/29 02:40:25;;;;;;;8.20;3.62;;;;;;;22.04;68.46;100347.28;18370941;32;20093;-55
2022/08/29 02:50:42;;;;;;;8.23;3.78;;;;;;;22.12;67.67;100336.28;18370416;32;20141;-55
2022/08/29 03:00:50;;;;;;;9.80;4.35;;;;;;;22.06;67.36;100339.25;18370695;32;20093;-55
2022/08/29 03:11:00;;;;;;;8.43;3.92;;;;;;;21.86;68.16;100339.34;18370386;32;20089;-55
2022/08/29 03:21:16;;;;;;;9.07;4.05;;;;;;;21.70;68.65;100347.19;18368884;32;20111;-55
2022/08/29 03:31:26;;;;;;;10.18;4.10;;;;;;;21.71;68.21;100354.22;18369714;32;20097;-55
2022/08/29 03:41:34;;;;;;;11.70;4.57;;;;;;;21.62;68.20;100375.91;18369354;32;20116;-55
2022/08/29 03:51:44;;;;;;;10.48;4.53;;;;;;;21.43;68.86;100381.25;18369309;32;20098;-55
2022/08/29 04:01:52;;;;;;;9.75;4.60;;;;;;;21.53;68.84;100397.59;18411140;32;20135;-55
2022/08/29 04:12:01;;;;;;;9.68;4.05;;;;;;;21.46;69.08;100389.94;18387134;32;20078;-56
2022/08/29 04:22:11;;;;;;;10.90;4.43;;;;;;;21.42;68.88;100406.94;18416851;32;20112;-55
2022/08/29 04:32:20;;;;;;;10.63;3.90;;;;;;;21.60;68.81;100425.59;18366791;32;20119;-55
2022/08/29 04:42:29;;;;;;;11.73;4.47;;;;;;;21.72;69.16;100432.12;18385736;32;20119;-55
2022/08/29 04:52:37;;;;;;;9.43;4.32;;;;;;;21.93;68.94;100440.84;18381472;32;20085;-55
2022/08/29 05:02:44;;;;;;;11.80;5.57;;;;;;;22.17;68.41;100430.81;18366475;32;20092;-56
2022/08/29 05:12:54;;;;;;;10.95;4.85;;;;;;;22.45;68.17;100433.84;18365951;32;20101;-56
2022/08/29 05:23:02;;;;;;;15.70;4.82;;;;;;;22.81;67.58;100442.66;18365484;32;20105;-55
2022/08/29 05:33:11;;;;;;;9.00;4.25;;;;;;;23.12;67.09;100444.53;18364435;32;20089;-56
2022/08/29 05:43:18;;;;;;;9.68;4.07;;;;;;;23.39;67.13;100444.00;18367237;32;20089;-55
2022/08/29 05:53:28;;;;;;;8.93;4.30;;;;;;;23.90;65.73;100464.28;18371687;32;20115;-55
2022/08/29 06:03:36;;;;;;;11.10;4.85;;;;;;;24.37;63.70;100453.59;18372314;32;20116;-56
2022/08/29 06:13:52;;;;;;;7.80;3.95;;;;;;;24.09;63.01;100460.56;18371387;32;20090;-56
2022/08/29 06:24:00;;;;;;;9.30;4.20;;;;;;;25.18;59.46;100465.62;18356859;32;20085;-55
2022/08/29 06:34:11;;;;;;;9.50;4.28;;;;;;;24.40;61.14;100474.78;18371455;32;20124;-55
2022/08/29 06:44:20;;;;;;;8.32;3.70;;;;;;;25.40;59.66;100482.09;18371020;32;20137;-55
2022/08/29 06:54:31;;;;;;;18.83;4.00;;;;;;;25.53;59.44;100498.25;18370600;32;20123;-55
2022/08/29 07:04:39;;;;;;;9.45;3.83;;;;;;;25.55;59.29;100502.53;18429982;32;20092;-55
2022/08/29 07:14:49;;;;;;;10.73;3.90;;;;;;;25.61;58.14;100510.19;18497561;32;20104;-56
2022/08/29 07:24:59;;;;;;;7.90;3.70;;;;;;;25.41;58.42;100518.56;18497552;32;20092;-56
2022/08/29 07:35:09;;;;;;;7.62;3.40;;;;;;;27.03;54.47;100524.09;18413497;32;20132;-56
2022/08/29 07:45:20;;;;;;;6.78;3.00;;;;;;;27.96;51.37;100533.59;18369373;32;20084;-55
2022/08/29 07:55:30;;;;;;;7.43;3.20;;;;;;;28.20;49.70;100519.34;18368878;32;20111;-55
2022/08/29 08:05:37;;;;;;;6.97;3.27;;;;;;;28.73;48.72;100520.72;18370684;32;20108;-55
2022/08/29 08:15:47;;;;;;;9.25;3.60;;;;;;;29.02;47.78;100518.50;18428244;32;20127;-56
2022/08/29 08:25:54;;;;;;;7.67;3.07;;;;;;;28.56;50.21;100535.47;18430298;32;20196;-56
2022/08/29 08:36:05;;;;;;;6.05;3.10;;;;;;;29.52;47.65;100541.50;18431201;32;20092;-55
2022/08/29 08:46:13;;;;;;;6.32;3.20;;;;;;;28.16;50.31;100540.16;18429878;32;20118;-56
2022/08/29 08:56:30;;;;;;;6.62;3.20;;;;;;;29.46;47.69;100540.16;18429583;32;20127;-55
2022/08/29 09:06:46;;;;;;;8.32;3.40;;;;;;;29.88;45.42;100535.94;18463631;32;20119;-56
2022/08/29 09:16:57;;;;;;;6.62;2.92;;;;;;;29.73;46.79;100543.41;18441533;32;20100;-56
2022/08/29 09:27:05;;;;;;;7.95;3.28;;;;;;;29.89;44.47;100543.88;18436096;32;20093;-56
2022/08/29 09:37:24;;;;;;;5.82;2.85;;;;;;;29.87;44.27;100536.91;18434991;32;20115;-56
2022/08/29 09:47:33;;;;;;;7.10;3.03;;;;;;;30.47;44.39;100528.41;18436221;32;20121;-56
2022/08/29 09:57:43;;;;;;;7.87;3.17;;;;;;;30.85;42.62;100526.13;18435683;32;20093;-56
2022/08/29 10:07:52;;;;;;;6.22;2.80;;;;;;;30.68;43.95;100535.66;18435147;32;20112;-56
2022/08/29 10:28:29;;;;;;;5.35;2.55;;;;;;;31.06;43.28;100515.31;18433810;32;20003;-56
2022/08/29 10:38:47;;;;;;;6.95;3.12;;;;;;;31.87;39.39;100510.94;18438337;32;20089;-56
2022/08/29 10:49:01;;;;;;;7.62;2.90;;;;;;;30.25;44.24;100515.91;18433915;32;20131;-56
2022/08/29 10:59:17;;;;;;;7.32;3.08;;;;;;;30.23;45.34;100516.03;18429248;32;20096;-56
2022/08/29 11:09:29;;;;;;;6.18;2.62;;;;;;;30.44;43.80;100504.41;18426632;32;20101;-56
2022/08/29 11:19:52;;;;;;;5.55;2.55;;;;;;;30.37;43.01;100485.25;18369003;32;20124;-56
2022/08/29 11:30:02;;;;;;;5.75;2.50;;;;;;;31.60;40.33;100482.75;18369353;32;20093;-56
2022/08/29 11:40:19;;;;;;;5.62;2.50;;;;;;;31.55;39.29;100480.47;18390982;32;20104;-56
2022/08/29 11:50:47;;;;;;;6.05;2.28;;;;;;;31.68;39.18;100460.47;18431035;32;20165;-56
2022/08/29 12:00:59;;;;;;;6.87;2.30;;;;;;;31.96;39.93;100466.88;18430871;32;20135;-56
2022/08/29 12:11:07;;;;;;;5.22;2.50;;;;;;;32.08;38.77;100462.19;18432123;32;20119;-56
2022/08/29 12:21:46;;;;;;;6.53;2.45;;;;;;;32.24;37.68;100456.22;18431986;32;20101;-57
2022/08/29 12:32:16;;;;;;;4.10;2.12;;;;;;;31.82;39.60;100448.44;18478203;32;20100;-56
2022/08/29 12:42:40;;;;;;;5.65;2.28;;;;;;;31.35;38.26;100433.72;18493776;32;20092;-56
2022/08/29 13:25:44;;;;;;;3.45;1.65;;;;;;;33.65;33.39;100402.31;18416156;32;20101;-57
2022/08/29 13:35:50;;;;;;;4.85;1.90;;;;;;;33.95;33.72;100395.66;18428585;32;20085;-56
2022/08/29 13:46:14;;;;;;;4.22;1.90;;;;;;;33.52;33.47;100379.22;18427235;32;20089;-57
2022/08/29 14:39:28;;;;;;;6.00;2.30;;;;;;;30.87;40.87;100392.09;18461983;32;20149;-57
2022/08/29 14:49:31;;;;;;;6.78;2.58;;;;;;;30.99;41.42;100392.87;18418040;32;20120;-57
2022/08/29 14:59:37;;;;;;;5.45;2.15;;;;;;;30.52;42.88;100407.66;18434168;32;20144;-57
2022/08/29 15:09:42;;;;;;;5.75;2.65;;;;;;;29.91;44.78;100438.81;18489678;32;20111;-56
2022/08/29 15:19:47;;;;;;;7.45;2.92;;;;;;;28.80;48.14;100441.41;18498296;32;20383;-56
2022/08/29 15:30:11;;;;;;;7.75;2.80;;;;;;;27.92;52.23;100454.31;18483128;32;20116;-57
2022/08/29 15:40:16;;;;;;;8.38;2.80;;;;;;;27.41;55.59;100442.78;18478372;32;20096;-57
2022/08/29 15:50:23;;;;;;;6.50;2.58;;;;;;;27.12;55.79;100424.31;18385434;32;20191;-56
2022/08/29 16:00:32;;;;;;;5.28;2.00;;;;;;;26.98;58.07;100423.50;18417619;32;20123;-56
2022/08/29 16:10:40;;;;;;;4.93;2.17;;;;;;;26.93;57.21;100431.00;18429371;32;20084;-56
2022/08/29 16:20:49;;;;;;;6.90;2.10;;;;;;;26.86;55.70;100427.03;18416145;32;20098;-57
2022/08/29 16:31:03;;;;;;;7.87;2.00;;;;;;;26.73;57.92;100446.59;18426251;32;20132;-57
2022/08/29 16:41:14;;;;;;;6.45;2.12;;;;;;;26.54;59.90;100465.78;18426341;32;20122;-57
2022/08/29 16:51:23;;;;;;;5.82;2.20;;;;;;;26.30;60.68;100473.66;18424831;32;20379;-56
2022/08/29 17:01:35;;;;;;;5.90;2.80;;;;;;;26.23;61.43;100475.03;18424898;32;20092;-56
2022/08/29 17:21:50;;;;;;;6.90;2.50;;;;;;;25.66;63.87;100490.31;18410092;32;20116;-56
2022/08/29 17:31:58;;;;;;;6.47;2.53;;;;;;;25.66;64.14;100498.31;18419743;32;20127;-57
2022/08/29 17:42:09;;;;;;;5.90;2.60;;;;;;;24.89;66.50;100502.16;18430398;32;20101;-56
2022/08/29 17:52:17;;;;;;;7.62;3.28;;;;;;;25.02;66.18;100499.59;18435825;32;20100;-56
2022/08/29 18:02:30;;;;;;;5.97;2.60;;;;;;;25.24;65.00;100522.28;18419029;32;20112;-56
2022/08/29 18:12:38;;;;;;;8.43;3.10;;;;;;;25.18;65.05;100539.56;18419786;32;20089;-56
2022/08/29 18:22:48;;;;;;;9.30;3.30;;;;;;;25.13;65.12;100552.31;18432275;32;20182;-56
2022/08/29 18:32:56;;;;;;;6.87;3.00;;;;;;;24.97;65.65;100553.28;18428802;32;20124;-56
2022/08/29 18:43:04;;;;;;;6.35;3.00;;;;;;;24.87;65.93;100578.81;18427829;32;20122;-56
2022/08/29 18:53:17;;;;;;;7.75;3.20;;;;;;;24.61;66.83;100576.69;18430845;32;20148;-56
2022/08/29 19:03:26;;;;;;;6.03;2.72;;;;;;;24.78;66.02;100580.19;18434068;32;20119;-56
2022/08/29 19:13:35;;;;;;;8.50;3.12;;;;;;;24.70;66.05;100577.09;18419095;32;20089;-57
2022/08/29 19:23:47;;;;;;;8.32;3.45;;;;;;;24.61;66.71;100579.34;18427212;32;20119;-56
2022/08/29 19:33:59;;;;;;;7.15;2.97;;;;;;;24.46;67.12;100590.94;18430301;32;20112;-55
2022/08/29 19:44:09;;;;;;;7.40;3.08;;;;;;;24.32;67.11;100600.56;18431866;32;20092;-55
2022/08/29 19:54:19;;;;;;;10.00;3.97;;;;;;;24.23;67.35;100609.09;18432171;32;20180;-55
2022/08/29 20:04:30;;;;;;;6.03;2.92;;;;;;;24.23;67.43;100620.63;18418098;32;20097;-55
2022/08/29 20:14:37;;;;;;;;;;;;;;;24.26;67.32;100624.94;18428712;32;20092;-55
2022/08/29 20:24:47;;;;;;;7.62;3.58;;;;;;;24.40;67.43;100624.16;18425134;32;19984;-55
2022/08/29 20:34:54;;;;;;;6.62;3.05;;;;;;;24.32;67.60;100627.25;18431296;32;20105;-54
2022/08/29 20:45:03;;;;;;;8.98;3.80;;;;;;;24.32;67.62;100623.72;18430672;32;20085;-55
2022/08/29 20:55:11;;;;;;;8.63;3.80;;;;;;;24.29;67.63;100634.59;18428604;32;20190;-55
2022/08/29 21:15:44;;;;;;;8.70;3.55;;;;;;;24.30;67.26;100630.97;18427895;32;20453;-55
2022/08/29 21:25:56;;;;;;;7.50;3.05;;;;;;;24.03;68.28;100621.72;18427151;32;20126;-55
2022/08/29 21:36:07;;;;;;;8.85;3.80;;;;;;;24.11;67.78;100624.84;18405195;32;20401;-55
2022/08/29 21:46:22;;;;;;;7.57;3.65;;;;;;;23.93;67.95;100626.72;18426908;32;20088;-55
2022/08/29 21:56:32;;;;;;;8.15;3.17;;;;;;;23.83;67.84;100621.00;18425860;32;20115;-55
2022/08/29 22:06:43;;;;;;;8.20;3.70;;;;;;;23.69;67.77;100639.56;18424970;32;20088;-55
2022/08/29 22:16:57;;;;;;;6.30;2.65;;;;;;;23.60;67.82;100640.91;18426017;32;20144;-55
2022/08/29 22:27:06;;;;;;;7.43;3.65;;;;;;;23.54;67.61;100628.78;18420009;32;203477;-55
2022/08/29 22:37:14;;;;;;;7.20;3.30;;;;;;;23.22;68.75;100641.94;18429967;32;20129;-55
2022/08/29 22:47:24;;;;;;;6.85;2.90;;;;;;;23.19;68.13;100646.56;18428124;32;20108;-55
2022/08/29 22:57:32;;;;;;;6.33;2.97;;;;;;;22.79;69.40;100647.66;18435005;32;20089;-54
2022/08/29 23:07:42;;;;;;;8.35;3.20;;;;;;;22.79;68.97;100655.62;18407298;32;20171;-55
2022/08/29 23:17:51;;;;;;;7.32;3.70;;;;;;;22.76;68.95;100666.41;18374555;32;20077;-55
2022/08/29 23:28:00;;;;;;;9.25;3.97;;;;;;;22.66;68.70;100678.44;18433999;32;20089;-55
2022/08/29 23:38:08;;;;;;;8.70;3.42;;;;;;;22.56;68.61;100686.88;18433341;32;20101;-55
2022/08/29 23:48:22;;;;;;;9.20;4.25;;;;;;;22.48;68.41;100678.41;18433583;32;20085;-54
2022/08/29 23:58:31;;;;;;;8.73;3.78;;;;;;;22.43;68.65;100677.75;18433437;32;20115;-55
